createdAt,value
2019-05-22T00:01:31.378Z,9.80
2019-05-22T00:04:07.000Z,11.10
2019-05-22T00:06:41.547Z,10.93
2019-05-22T00:09:19.356Z,14.23
2019-05-22T00:11:49.620Z,11.67
2019-05-22T00:14:18.432Z,11.13
2019-05-22T00:16:47.757Z,14.40
2019-05-22T00:19:18.357Z,9.90
2019-05-22T00:21:51.690Z,10.30
2019-05-22T00:24:22.196Z,11.07
2019-05-22T00:26:51.394Z,11.50
2019-05-22T00:29:22.241Z,11.43
2019-05-22T00:31:52.528Z,10.03
2019-05-22T00:34:21.282Z,9.80
2019-05-22T00:36:50.449Z,10.40
2019-05-22T00:39:21.368Z,10.77
2019-05-22T00:41:52.154Z,12.60
2019-05-22T00:44:23.007Z,13.13
2019-05-22T00:46:55.528Z,10.67
2019-05-22T00:49:27.194Z,10.90
2019-05-22T00:52:20.435Z,9.33
2019-05-22T00:54:55.524Z,7.53
2019-05-22T00:57:42.488Z,8.97
2019-05-22T01:00:21.943Z,9.23
2019-05-22T01:02:52.251Z,8.80
2019-05-22T01:05:22.451Z,9.37
2019-05-22T01:07:52.665Z,8.67
2019-05-22T01:10:28.705Z,9.23
2019-05-22T01:13:02.984Z,10.80
2019-05-22T01:15:32.718Z,8.57
2019-05-22T01:18:07.264Z,10.33
2019-05-22T01:20:38.185Z,11.00
2019-05-22T01:23:08.638Z,7.23
2019-05-22T01:25:38.963Z,11.57
2019-05-22T01:28:09.039Z,6.83
2019-05-22T01:30:52.102Z,11.67
2019-05-22T01:33:23.282Z,10.20
2019-05-22T01:36:12.850Z,7.13
2019-05-22T01:38:42.291Z,9.60
2019-05-22T01:41:17.825Z,9.30
2019-05-22T01:43:48.731Z,10.97
2019-05-22T01:46:19.036Z,7.57
2019-05-22T01:48:50.662Z,13.00
2019-05-22T01:51:20.758Z,17.27
2019-05-22T01:53:51.761Z,12.00
2019-05-22T01:56:21.360Z,8.80
2019-05-22T01:58:50.751Z,8.93
2019-05-22T02:01:22.060Z,10.10
2019-05-22T02:03:54.173Z,8.77
2019-05-22T02:06:24.999Z,13.17
2019-05-22T02:09:24.471Z,9.70
2019-05-22T02:11:57.655Z,7.57
2019-05-22T02:14:28.037Z,10.67
2019-05-22T02:16:59.235Z,7.27
2019-05-22T02:19:29.331Z,7.90
2019-05-22T02:21:59.703Z,6.43
2019-05-22T02:24:30.971Z,8.13
2019-05-22T02:27:01.644Z,13.57
2019-05-22T02:29:31.809Z,6.77
2019-05-22T02:32:01.249Z,8.43
2019-05-22T02:34:31.988Z,6.60
2019-05-22T02:37:00.733Z,8.67
2019-05-22T02:39:35.173Z,7.97
2019-05-22T02:42:13.087Z,6.07
2019-05-22T02:44:42.713Z,7.23
2019-05-22T02:47:19.570Z,7.13
2019-05-22T02:49:44.856Z,7.20
2019-05-22T02:52:15.237Z,7.63
2019-05-22T02:54:45.312Z,7.97
2019-05-22T02:57:14.663Z,8.40
2019-05-22T02:59:43.649Z,9.10
2019-05-22T03:02:14.304Z,16.10
2019-05-22T03:05:07.265Z,13.13
2019-05-22T03:07:38.941Z,11.63
2019-05-22T03:10:10.914Z,9.43
2019-05-22T03:12:40.893Z,10.23
2019-05-22T03:15:12.930Z,7.67
2019-05-22T03:17:43.097Z,6.80
2019-05-22T03:20:17.040Z,8.13
2019-05-22T03:23:08.040Z,6.60
2019-05-22T03:25:36.837Z,6.87
2019-05-22T03:28:07.214Z,6.60
2019-05-22T03:30:42.036Z,4.73
2019-05-22T03:33:11.796Z,6.27
2019-05-22T03:35:46.780Z,8.10
2019-05-22T03:38:17.676Z,6.53
2019-05-22T03:40:47.620Z,5.10
2019-05-22T03:43:22.486Z,5.77
2019-05-22T03:45:54.246Z,4.10
2019-05-22T03:48:24.913Z,5.43
2019-05-22T03:50:57.909Z,5.03
2019-05-22T03:53:27.128Z,6.17
2019-05-22T03:55:57.266Z,5.40
2019-05-22T03:58:26.783Z,6.27
2019-05-22T04:00:58.669Z,5.70
2019-05-22T04:03:27.519Z,5.83
2019-05-22T04:05:56.622Z,4.53
2019-05-22T04:08:27.668Z,5.50
2019-05-22T04:11:01.934Z,6.07
2019-05-22T04:13:32.053Z,9.43
2019-05-22T04:16:02.213Z,7.27
2019-05-22T04:18:32.661Z,7.10
2019-05-22T04:21:03.223Z,5.43
2019-05-22T04:23:32.109Z,5.40
2019-05-22T04:26:03.801Z,6.53
2019-05-22T04:28:33.426Z,6.40
2019-05-22T04:31:03.244Z,8.17
2019-05-22T04:33:32.523Z,8.77
2019-05-22T04:36:02.813Z,4.73
2019-05-22T04:38:32.236Z,9.30
2019-05-22T04:41:04.237Z,5.63
2019-05-22T04:43:34.750Z,4.83
2019-05-22T04:46:08.273Z,5.53
2019-05-22T04:48:37.718Z,4.73
2019-05-22T04:51:26.031Z,4.67
2019-05-22T04:53:56.734Z,4.50
2019-05-22T04:56:27.349Z,4.40
2019-05-22T04:58:58.789Z,6.70
2019-05-22T05:01:28.903Z,4.37
2019-05-22T05:03:57.981Z,6.00
2019-05-22T05:06:28.792Z,4.90
2019-05-22T05:08:58.095Z,5.07
2019-05-22T05:11:27.580Z,3.50
2019-05-22T05:13:56.584Z,4.90
2019-05-22T05:16:25.443Z,6.83
2019-05-22T05:18:54.374Z,9.80
2019-05-22T05:21:23.298Z,5.60
2019-05-22T05:23:52.498Z,3.73
2019-05-22T05:26:22.381Z,5.93
2019-05-22T05:28:51.641Z,7.13
2019-05-22T05:31:20.644Z,7.10
2019-05-22T05:34:02.990Z,4.50
2019-05-22T05:36:32.943Z,4.47
2019-05-22T05:39:03.376Z,8.47
2019-05-22T05:41:32.252Z,5.23
2019-05-22T05:44:01.305Z,6.47
2019-05-22T05:46:30.326Z,5.87
2019-05-22T05:49:00.917Z,6.60
2019-05-22T05:51:33.720Z,5.80
2019-05-22T05:54:07.322Z,6.28
2019-05-22T05:56:39.113Z,5.87
2019-05-22T05:59:09.120Z,4.87
2019-05-22T06:01:42.123Z,6.57
2019-05-22T06:04:11.712Z,4.50
2019-05-22T06:07:17.345Z,5.43
2019-05-22T06:09:52.568Z,5.63
2019-05-22T06:12:21.555Z,5.13
2019-05-22T06:14:50.438Z,4.67
2019-05-22T06:17:57.244Z,3.97
2019-05-22T06:20:28.535Z,5.17
2019-05-22T06:23:45.999Z,3.30
2019-05-22T06:26:39.598Z,6.67
2019-05-22T06:29:10.375Z,3.73
2019-05-22T06:31:51.573Z,3.80
2019-05-22T06:34:21.104Z,2.97
2019-05-22T06:36:50.686Z,4.33
2019-05-22T06:39:20.070Z,3.67
2019-05-22T06:41:49.377Z,4.77
2019-05-22T06:44:36.811Z,3.67
2019-05-22T06:47:08.255Z,2.87
2019-05-22T06:49:55.369Z,3.23
2019-05-22T06:52:24.959Z,3.87
2019-05-22T06:54:55.008Z,5.67
2019-05-22T06:57:27.172Z,3.33
2019-05-22T07:00:15.502Z,3.37
2019-05-22T07:02:45.048Z,9.27
2019-05-22T07:05:16.126Z,3.93
2019-05-22T07:07:46.922Z,7.67
2019-05-22T07:10:15.881Z,3.67
2019-05-22T07:12:45.408Z,2.93
2019-05-22T07:15:46.390Z,6.27
2019-05-22T07:18:19.994Z,3.77
2019-05-22T07:20:57.295Z,4.63
2019-05-22T07:23:28.457Z,6.53
2019-05-22T07:25:59.227Z,3.13
2019-05-22T07:28:28.948Z,4.17
2019-05-22T07:30:58.735Z,3.10
2019-05-22T07:33:27.712Z,3.63
2019-05-22T07:36:09.589Z,5.17
2019-05-22T07:38:27.724Z,3.70
2019-05-22T07:40:56.753Z,4.97
2019-05-22T07:43:25.851Z,4.60
2019-05-22T07:45:57.279Z,5.33
2019-05-22T07:48:28.975Z,5.63
2019-05-22T07:50:58.177Z,4.97
2019-05-22T07:53:28.334Z,5.07
2019-05-22T07:55:59.481Z,4.07
2019-05-22T07:58:31.259Z,3.20
2019-05-22T08:01:02.141Z,3.87
2019-05-22T08:03:32.409Z,3.53
2019-05-22T08:06:01.724Z,3.80
2019-05-22T08:08:33.036Z,7.10
2019-05-22T08:11:01.945Z,4.10
2019-05-22T08:13:38.664Z,6.20
2019-05-22T08:16:08.397Z,4.67
2019-05-22T08:18:38.688Z,4.90
2019-05-22T08:21:08.735Z,5.00
2019-05-22T08:23:38.445Z,3.90
2019-05-22T08:26:09.474Z,3.80
2019-05-22T08:28:38.947Z,3.33
2019-05-22T08:31:09.002Z,5.30
2019-05-22T08:33:38.505Z,3.60
2019-05-22T08:36:08.030Z,5.07
2019-05-22T08:38:37.114Z,3.13
2019-05-22T08:41:09.090Z,3.77
2019-05-22T08:44:03.256Z,4.83
2019-05-22T08:46:09.814Z,4.37
2019-05-22T08:48:47.370Z,5.10
2019-05-22T08:51:12.326Z,4.67
2019-05-22T08:53:47.284Z,6.73
2019-05-22T08:56:13.156Z,5.27
2019-05-22T08:58:44.227Z,4.93
2019-05-22T09:01:14.002Z,9.47
2019-05-22T09:03:43.520Z,6.60
2019-05-22T09:06:12.466Z,7.65
2019-05-22T09:08:41.391Z,5.87
2019-05-22T09:11:11.175Z,6.77
2019-05-22T09:13:40.680Z,8.97
2019-05-22T09:16:11.643Z,5.45
2019-05-22T09:18:41.116Z,5.57
2019-05-22T09:21:10.530Z,5.62
2019-05-22T09:23:40.858Z,5.97
2019-05-22T09:26:10.834Z,4.80
2019-05-22T09:28:39.702Z,7.08
2019-05-22T09:31:08.616Z,7.97
2019-05-22T09:33:38.534Z,6.47
2019-05-22T09:36:08.433Z,6.42
2019-05-22T09:38:37.728Z,5.13
2019-05-22T09:41:06.661Z,7.62
2019-05-22T09:43:35.843Z,5.30
2019-05-22T09:46:05.359Z,4.33
2019-05-22T09:48:35.235Z,5.28
2019-05-22T09:51:04.207Z,4.33
2019-05-22T09:53:33.420Z,6.00
2019-05-22T09:56:02.189Z,6.78
2019-05-22T09:58:31.028Z,5.15
2019-05-22T10:01:00.523Z,4.78
2019-05-22T10:03:29.623Z,6.25
2019-05-22T10:05:58.974Z,5.55
2019-05-22T10:08:28.063Z,6.62
2019-05-22T10:10:57.481Z,11.70
2019-05-22T10:13:29.153Z,4.97
2019-05-22T10:15:57.553Z,4.45
2019-05-22T10:18:26.488Z,9.60
2019-05-22T10:20:56.420Z,6.20
2019-05-22T10:23:25.536Z,7.03
2019-05-22T10:25:54.475Z,4.78
2019-05-22T10:28:23.584Z,6.92
2019-05-22T10:30:52.631Z,6.83
2019-05-22T10:33:21.771Z,5.83
2019-05-22T10:35:52.004Z,7.12
2019-05-22T10:38:21.070Z,6.67
2019-05-22T10:40:49.900Z,7.00
2019-05-22T10:43:19.237Z,6.90
2019-05-22T10:45:48.375Z,5.30
2019-05-22T10:48:17.603Z,6.25
2019-05-22T10:50:46.867Z,5.58
2019-05-22T10:53:32.532Z,6.22
2019-05-22T10:55:46.747Z,5.25
2019-05-22T10:58:15.667Z,5.42
2019-05-22T11:00:45.071Z,5.05
2019-05-22T11:03:15.085Z,6.62
2019-05-22T11:05:44.493Z,5.40
2019-05-22T11:08:13.298Z,4.67
2019-05-22T11:10:45.199Z,5.58
2019-05-22T11:13:13.804Z,6.37
2019-05-22T11:15:42.815Z,7.33
2019-05-22T11:18:11.936Z,6.67
2019-05-22T11:20:40.778Z,8.80
2019-05-22T11:23:10.391Z,8.73
2019-05-22T11:25:39.250Z,7.12
2019-05-22T11:28:08.441Z,7.55
2019-05-22T11:30:37.670Z,6.50
2019-05-22T11:33:07.320Z,7.05
2019-05-22T11:35:36.246Z,6.55
2019-05-22T11:38:05.365Z,6.75
2019-05-22T11:40:34.748Z,6.35
2019-05-22T11:43:04.975Z,6.62
2019-05-22T11:45:34.089Z,7.62
2019-05-22T11:48:03.243Z,6.75
2019-05-22T11:50:33.239Z,6.17
2019-05-22T11:53:02.146Z,6.62
2019-05-22T11:55:44.398Z,7.83
2019-05-22T11:58:03.207Z,7.40
2019-05-22T12:00:32.406Z,6.37
2019-05-22T12:03:03.011Z,10.05
2019-05-22T12:05:32.720Z,7.50
2019-05-22T12:08:02.562Z,8.00
2019-05-22T12:10:31.775Z,9.95
2019-05-22T12:13:01.288Z,6.85
2019-05-22T12:15:31.654Z,7.05
2019-05-22T12:18:01.217Z,7.62
2019-05-22T12:20:30.636Z,6.62
2019-05-22T12:22:59.480Z,8.85
2019-05-22T12:25:29.285Z,7.60
2019-05-22T12:27:58.514Z,8.28
2019-05-22T12:30:27.857Z,7.60
2019-05-22T12:32:57.531Z,7.25
2019-05-22T12:35:27.680Z,8.63
2019-05-22T12:37:58.774Z,6.83
2019-05-22T12:40:31.935Z,7.65
2019-05-22T12:43:01.721Z,7.05
2019-05-22T12:45:31.011Z,6.55
2019-05-22T12:48:00.842Z,8.70
2019-05-22T12:50:30.667Z,7.45
2019-05-22T12:53:02.245Z,9.53
2019-05-22T12:55:31.416Z,8.63
2019-05-22T12:58:00.630Z,6.22
2019-05-22T13:00:29.839Z,6.17
2019-05-22T13:03:00.661Z,7.10
2019-05-22T13:05:29.951Z,6.12
2019-05-22T13:07:59.363Z,6.85
2019-05-22T13:10:28.604Z,6.78
2019-05-22T13:12:57.916Z,7.05
2019-05-22T13:15:27.539Z,8.73
2019-05-22T13:17:57.845Z,6.87
2019-05-22T13:20:42.542Z,6.17
2019-05-22T13:23:04.540Z,7.00
2019-05-22T13:25:36.971Z,6.08
2019-05-22T13:28:07.011Z,6.10
2019-05-22T13:30:39.213Z,6.53
2019-05-22T13:33:13.468Z,13.22
2019-05-22T13:35:43.477Z,10.15
2019-05-22T13:38:13.026Z,9.73
2019-05-22T13:40:42.437Z,12.80
2019-05-22T13:43:11.468Z,12.00
2019-05-22T13:45:40.551Z,12.43
2019-05-22T13:48:09.856Z,8.60
2019-05-22T13:50:39.367Z,9.18
2019-05-22T13:53:10.871Z,13.88
2019-05-22T13:55:40.272Z,12.03
2019-05-22T13:58:09.588Z,14.00
2019-05-22T14:00:38.543Z,18.27
2019-05-22T14:03:07.941Z,14.53
2019-05-22T14:05:37.944Z,12.25
2019-05-22T14:08:08.310Z,14.40
2019-05-22T14:10:38.821Z,13.38
2019-05-22T14:13:08.353Z,12.23
2019-05-22T14:15:50.061Z,15.63
2019-05-22T14:18:08.434Z,18.20
2019-05-22T14:20:37.632Z,18.42
2019-05-22T14:23:06.596Z,14.68
2019-05-22T14:25:35.549Z,15.43
2019-05-22T14:28:05.523Z,13.20
2019-05-22T14:30:34.617Z,12.18
2019-05-22T14:33:05.171Z,11.18
2019-05-22T14:35:48.495Z,13.05
2019-05-22T14:38:09.960Z,12.78
2019-05-22T14:40:39.488Z,14.53
2019-05-22T14:43:08.925Z,11.38
2019-05-22T14:45:38.867Z,16.95
2019-05-22T14:48:09.048Z,11.18
2019-05-22T14:50:38.047Z,9.30
2019-05-22T14:53:07.256Z,10.70
2019-05-22T14:55:37.062Z,10.28
2019-05-22T14:58:06.590Z,11.08
2019-05-22T15:00:36.447Z,10.48
2019-05-22T15:03:06.411Z,9.10
2019-05-22T15:05:35.572Z,8.25
2019-05-22T15:08:05.809Z,5.50
2019-05-22T15:10:35.944Z,7.00
2019-05-22T15:13:05.743Z,5.25
2019-05-22T15:15:39.940Z,8.68
2019-05-22T15:18:06.543Z,6.35
2019-05-22T15:20:41.979Z,8.08
2019-05-22T15:23:11.757Z,7.47
2019-05-22T15:25:40.792Z,7.85
2019-05-22T15:28:10.423Z,8.05
2019-05-22T15:30:39.765Z,5.47
2019-05-22T15:33:09.693Z,5.85
2019-05-22T15:35:38.627Z,6.67
2019-05-22T15:38:10.198Z,6.78
2019-05-22T15:40:39.452Z,5.62
2019-05-22T15:43:10.977Z,3.42
2019-05-22T15:45:42.336Z,5.90
2019-05-22T15:48:17.882Z,6.83
2019-05-22T15:50:49.661Z,5.92
2019-05-22T15:53:20.565Z,5.35
2019-05-22T15:55:50.729Z,6.40
2019-05-22T15:58:20.732Z,9.98
2019-05-22T16:00:50.825Z,6.78
2019-05-22T16:03:22.550Z,5.60
2019-05-22T16:05:53.896Z,5.62
2019-05-22T16:08:23.530Z,5.25
2019-05-22T16:10:52.863Z,4.80
2019-05-22T16:13:24.473Z,5.75
2019-05-22T16:15:55.590Z,4.72
2019-05-22T16:18:28.259Z,8.00
2019-05-22T16:20:59.557Z,5.12
2019-05-22T16:23:30.735Z,6.20
2019-05-22T16:25:59.882Z,7.35
2019-05-22T16:28:33.178Z,5.90
2019-05-22T16:31:00.955Z,7.63
2019-05-22T16:33:30.567Z,6.12
2019-05-22T16:35:59.702Z,7.70
2019-05-22T16:38:28.677Z,7.80
2019-05-22T16:40:58.524Z,6.95
2019-05-22T16:43:47.378Z,7.25
2019-05-22T16:45:59.361Z,6.28
2019-05-22T16:48:29.666Z,6.05
2019-05-22T16:50:59.267Z,11.00
2019-05-22T16:53:29.105Z,8.78
2019-05-22T16:55:59.295Z,8.95
2019-05-22T16:58:29.598Z,7.85
2019-05-22T17:00:59.512Z,11.33
2019-05-22T17:03:29.917Z,10.63
2019-05-22T17:05:59.536Z,9.45
2019-05-22T17:08:30.706Z,8.78
2019-05-22T17:11:01.511Z,7.20
2019-05-22T17:13:32.303Z,6.22
2019-05-22T17:16:01.696Z,4.08
2019-05-22T17:18:46.116Z,3.47
2019-05-22T17:21:02.763Z,3.47
2019-05-22T17:23:32.136Z,4.20
2019-05-22T17:26:01.434Z,2.85
2019-05-22T17:28:30.337Z,3.70
2019-05-22T17:30:59.355Z,3.58
2019-05-22T17:33:28.193Z,4.35
2019-05-22T17:35:58.517Z,4.08
2019-05-22T17:38:28.105Z,4.03
2019-05-22T17:40:58.629Z,4.67
2019-05-22T17:43:28.809Z,4.67
2019-05-22T17:45:58.084Z,4.42
2019-05-22T17:48:27.552Z,5.87
2019-05-22T17:50:56.553Z,4.53
2019-05-22T17:53:26.329Z,4.83
2019-05-22T17:55:56.434Z,5.60
2019-05-22T17:58:29.780Z,6.03
2019-05-22T18:00:57.264Z,5.27
2019-05-22T18:03:26.580Z,5.10
2019-05-22T18:05:55.560Z,4.35
2019-05-22T18:08:26.317Z,4.83
2019-05-22T18:10:55.640Z,6.47
2019-05-22T18:13:24.769Z,10.50
2019-05-22T18:15:53.598Z,5.05
2019-05-22T18:18:22.559Z,6.08
2019-05-22T18:20:51.361Z,7.62
2019-05-22T18:23:20.284Z,4.95
2019-05-22T18:25:49.176Z,8.13
2019-05-22T18:28:18.234Z,4.70
2019-05-22T18:30:47.410Z,4.90
2019-05-22T18:33:16.256Z,5.55
2019-05-22T18:35:45.181Z,7.40
2019-05-22T18:38:14.064Z,7.50
2019-05-22T18:40:42.796Z,7.07
2019-05-22T18:43:11.755Z,6.00
2019-05-22T18:45:40.587Z,6.03
2019-05-22T18:48:10.392Z,8.55
2019-05-22T18:50:39.946Z,8.65
2019-05-22T18:53:08.831Z,6.72
2019-05-22T18:55:37.825Z,6.70
2019-05-22T18:58:06.678Z,6.92
2019-05-22T19:00:35.919Z,6.75
2019-05-22T19:03:04.917Z,5.83
2019-05-22T19:05:35.088Z,7.08
2019-05-22T19:08:04.104Z,5.60
2019-05-22T19:10:33.473Z,8.38
2019-05-22T19:13:02.724Z,5.22
2019-05-22T19:15:32.550Z,6.42
2019-05-22T19:18:01.498Z,4.62
2019-05-22T19:20:30.801Z,4.83
2019-05-22T19:23:01.766Z,4.85
2019-05-22T19:25:30.747Z,5.78
2019-05-22T19:27:59.723Z,4.47
2019-05-22T19:30:28.958Z,4.40
2019-05-22T19:32:57.852Z,5.43
2019-05-22T19:35:26.629Z,4.20
2019-05-22T19:37:55.725Z,5.27
2019-05-22T19:40:24.563Z,4.93
2019-05-22T19:42:53.533Z,4.67
2019-05-22T19:45:22.518Z,4.40
2019-05-22T19:47:54.423Z,4.75
2019-05-22T19:50:25.219Z,4.80
2019-05-22T19:52:55.486Z,4.23
2019-05-22T19:55:25.806Z,4.47
2019-05-22T19:57:55.270Z,4.57
2019-05-22T20:00:24.572Z,4.47
2019-05-22T20:02:54.281Z,6.23
2019-05-22T20:05:23.986Z,3.93
2019-05-22T20:07:53.190Z,4.57
2019-05-22T20:10:22.309Z,4.27
2019-05-22T20:12:51.599Z,4.30
2019-05-22T20:15:21.090Z,5.07
2019-05-22T20:17:50.270Z,4.23
2019-05-22T20:20:20.755Z,5.90
2019-05-22T20:22:50.221Z,5.50
2019-05-22T20:25:20.463Z,4.00
2019-05-22T20:27:49.296Z,5.57
2019-05-22T20:30:20.052Z,20.87
2019-05-22T20:32:49.958Z,11.47
2019-05-22T20:35:19.483Z,9.00
2019-05-22T20:37:48.392Z,9.27
2019-05-22T20:40:19.109Z,9.07
2019-05-22T20:42:48.121Z,6.43
2019-05-22T20:45:21.067Z,7.40
2019-05-22T20:47:56.573Z,8.90
2019-05-22T20:50:25.806Z,6.80
2019-05-22T20:52:54.944Z,7.13
2019-05-22T20:55:24.301Z,4.40
2019-05-22T20:57:53.608Z,6.47
2019-05-22T21:00:23.607Z,5.17
2019-05-22T21:02:59.002Z,8.20
2019-05-22T21:05:28.151Z,7.07
2019-05-22T21:08:01.910Z,6.07
2019-05-22T21:10:30.731Z,8.07
2019-05-22T21:13:00.733Z,5.60
2019-05-22T21:15:31.211Z,7.33
2019-05-22T21:18:00.129Z,3.87
2019-05-22T21:20:31.158Z,5.93
2019-05-22T21:23:01.297Z,4.30
2019-05-22T21:25:30.113Z,4.77
2019-05-22T21:27:59.070Z,7.30
2019-05-22T21:30:29.637Z,7.40
2019-05-22T21:32:59.030Z,4.70
2019-05-22T21:35:28.344Z,4.60
2019-05-22T21:37:58.295Z,7.43
2019-05-22T21:40:27.401Z,4.20
2019-05-22T21:42:56.308Z,8.80
2019-05-22T21:45:25.477Z,8.80
2019-05-22T21:47:54.572Z,6.73
2019-05-22T21:50:23.538Z,5.03
2019-05-22T21:52:53.381Z,4.10
2019-05-22T21:55:24.067Z,4.63
2019-05-22T21:57:55.234Z,6.33
2019-05-22T22:00:50.849Z,7.63
2019-05-22T22:03:24.855Z,5.30
2019-05-22T22:05:54.928Z,6.20
2019-05-22T22:08:25.047Z,4.70
2019-05-22T22:11:03.007Z,6.20
2019-05-22T22:13:33.142Z,4.73
2019-05-22T22:16:02.971Z,5.87
2019-05-22T22:18:32.589Z,5.43
2019-05-22T22:21:01.378Z,4.63
2019-05-22T22:23:35.906Z,7.33
2019-05-22T22:26:24.203Z,4.30
2019-05-22T22:28:37.174Z,6.43
2019-05-22T22:31:09.042Z,9.10
2019-05-22T22:33:39.458Z,9.37
2019-05-22T22:36:09.754Z,6.23
2019-05-22T22:38:39.690Z,7.13
2019-05-22T22:41:09.780Z,6.30
2019-05-22T22:43:40.728Z,5.17
2019-05-22T22:46:20.812Z,7.10
2019-05-22T22:48:53.239Z,4.20
2019-05-22T22:51:24.461Z,7.20
2019-05-22T22:53:55.778Z,5.10
2019-05-22T22:56:25.172Z,7.90
2019-05-22T22:58:54.423Z,6.87
2019-05-22T23:01:28.236Z,8.83
2019-05-22T23:04:00.957Z,4.47
2019-05-22T23:06:31.011Z,6.47
2019-05-22T23:09:00.753Z,4.07
2019-05-22T23:11:30.652Z,5.07
2019-05-22T23:14:00.659Z,4.63
2019-05-22T23:16:29.952Z,7.37
2019-05-22T23:19:38.039Z,5.67
2019-05-22T23:22:07.812Z,4.00
2019-05-22T23:24:38.794Z,7.10
2019-05-22T23:27:09.312Z,5.20
2019-05-22T23:29:38.438Z,4.33
2019-05-22T23:32:09.256Z,6.23
2019-05-22T23:34:38.814Z,8.17
2019-05-22T23:37:10.293Z,5.37
2019-05-22T23:39:39.675Z,7.53
2019-05-22T23:42:12.893Z,5.80
2019-05-22T23:44:42.623Z,4.83
2019-05-22T23:47:12.810Z,4.60
2019-05-22T23:49:43.658Z,8.87
2019-05-22T23:52:15.365Z,7.93
2019-05-22T23:54:45.908Z,7.22
2019-05-22T23:57:17.678Z,4.27
2019-05-22T23:59:52.958Z,4.43
